x

9442396 - La Push, Wa (lapw1) Weather Station

6:30 - Sun 26th Apr 2015 All times are PDT. -7 hours from GMT.

  • Wind
    9mph, 15mph gusts
  • Sea Temp 49°f
  • Air Temp 52°f
  • Sea Pressure 1021.6mb
  • 9442396 - La Push, Wa
  • 9442396 - La Push, Wa

More Historic Weather Station data

Upgrade to MSW Pro to gain access to the past 30 days of data for over 8000 Wavebouys and Weather Stations around the globe.

Join Pro

Comparision Forecast

View Surf forecast
   
dim. 04/26 6:30 9 15 mph 1021.6mb 49f 52f
6:24 5 21 mph 1021.6mb 49f 52f
6:18 7 15 mph 1021.6mb 49f 52f
6:12 9 15 mph 1021.6mb 49f 52f
6:06 8 18 mph 1021.6mb 49f 52f
6:00 11 22 mph 1021.5mb 49f 51f
5:36 13 21 mph 1021.6mb 49f 51f
5:30 11 18 mph 1021.6mb 49f 52f
5:24 13 21 mph 1021.6mb 49f 52f
5:18 13 21 mph 1021.7mb 49f 52f
5:12 6 15 mph 1021.7mb 49f 52f
5:06 11 26 mph 1021.8mb 48f 52f
5:00 11 20 mph 1021.8mb 48f 52f
4:36 7 18 mph 1021.7mb 48f 52f
4:30 10 15 mph 1021.8mb 48f 52f
4:24 13 23 mph 1021.7mb 48f 52f
4:18 8 18 mph 1021.7mb 48f 52f
4:12 9 18 mph 1021.6mb 48f 52f
4:06 14 24 mph 1021.6mb 48f 52f
4:00 10 16 mph 1021.5mb 48f 51f
3:36 8 16 mph 1021.7mb 48f 51f
3:30 7 15 mph 1021.7mb 48f 51f
3:24 8 18 mph 1021.7mb 48f 51f
3:18 14 24 mph 1021.8mb 48f 51f
3:12 13 26 mph 1021.8mb 48f 51f
3:06 9 16 mph 1021.6mb 48f 51f
3:00 8 14 mph 1021.6mb 48f 51f
2:36 10 22 mph - - 51f
2:30 10 17 mph - - 51f
2:24 11 21 mph 1021.6mb 49f 51f
2:18 13 24 mph 1021.5mb 49f 51f
2:12 15 24 mph 1021.6mb 49f 51f
2:06 11 23 mph 1021.6mb 49f 51f
2:00 14 26 mph 1021.6mb 49f 51f
1:36 15 25 mph 1021.3mb 48f 50f
1:30 11 22 mph 1021.3mb 48f 50f
1:24 11 24 mph 1021.4mb 48f 50f
1:18 13 20 mph 1021.5mb 49f 50f
1:12 15 25 mph 1021.5mb 49f 50f
1:06 11 24 mph 1021.6mb 49f 51f
1:00 17 25 mph 1021.6mb 48f 51f
12:36  -  mph 1021.7mb 49f -
12:30 11 18 mph 1021.7mb 49f 51f
12:24 14 24 mph 1021.8mb 49f 51f
12:18 9 20 mph 1021.8mb 49f 51f
12:12 13 17 mph 1021.7mb 49f 51f
12:06 10 20 mph 1021.6mb 49f 51f
12:00 14 23 mph 1021.6mb 49f 51f
11:36 9 17 mph 1021.6mb 49f 50f
11:30 14 24 mph 1021.6mb 49f 51f
11:24 17 23 mph 1021.5mb 49f 50f
11:18 20 26 mph 1021.4mb 49f 50f
11:12 13 24 mph 1021.2mb 49f 50f
11:06 17 25 mph 1021.2mb 49f 50f
11:00 15 25 mph 1021.3mb 48f 50f
10:36 10 18 mph 1021.1mb 48f 50f
10:30 7 17 mph 1021.1mb 48f 49f
10:24 8 14 mph 1021mb 48f 49f
10:18 6 14 mph 1021.1mb 48f 50f
10:12 6 9 mph 1021.1mb 48f 49f
10:06 5 9 mph 1021.2mb 48f 49f
10:00 5 9 mph 1021.1mb 48f 49f
9:36 6 8 mph 1021.1mb 49f 47f
9:30 5 7 mph 1021mb 49f 46f
9:24 6 10 mph 1020.9mb 49f 46f
9:18 5 7 mph 1020.7mb 49f 45f
9:12 7 8 mph 1020.6mb 49f 44f
9:06 5 8 mph 1020.6mb 49f 44f
9:00 6 9 mph 1020.5mb 48f 44f
8:36 6 8 mph 1020.4mb 48f 43f
8:30 6 7 mph 1020.3mb 48f 43f
8:24 6 7 mph 1020.3mb 48f 43f
8:18 5 8 mph 1020.1mb 48f 42f
8:12  -  mph 1020mb 48f -
8:06 6 8 mph 1020mb 48f 42f
8:00 7 9 mph 1019.9mb 48f 42f
7:36 7 10 mph 1019.6mb 48f 41f
7:30 6 8 mph 1019.6mb 48f 41f
7:24 6 8 mph 1019.8mb 48f 41f
7:18 6 10 mph 1019.8mb 48f 41f
7:12 6 8 mph 1019.8mb 48f 41f
7:06 7 10 mph 1019.9mb 48f 41f
7:00 7 9 mph 1019.9mb 48f 41f
6:36 7 9 mph 1019.4mb 48f 41f
6:30 7 10 mph 1019.4mb 48f 41f
6:24 8 10 mph 1019.3mb 48f 41f
6:18 7 9 mph 1019.3mb 48f 41f
6:12 7 8 mph 1019.3mb 48f 41f
6:06 6 8 mph 1019.4mb 48f 41f
6:00 8 9 mph 1019.3mb 48f 41f
5:36 6 8 mph 1019.4mb 48f 41f
5:30 6 9 mph 1019.4mb 48f 41f
5:24 6 8 mph 1019.4mb 48f 41f
5:18 6 8 mph 1019.4mb 48f 41f
5:12 7 9 mph 1019.3mb 48f 41f
5:06 7 8 mph 1019.3mb 48f 40f
5:00 7 10 mph 1019.2mb 48f 40f
4:36  -  mph 1018.9mb 48f -
4:30 7 8 mph 1018.9mb 48f 40f
4:24 7 8 mph 1018.8mb 48f 40f
4:18 6 10 mph 1018.8mb 48f 40f
4:12 8 9 mph 1018.8mb 48f 40f
4:06 5 10 mph 1018.8mb 48f 40f
4:00 7 9 mph 1018.7mb 48f 40f
3:36 5 7 mph 1018.8mb 48f 40f
3:30 6 8 mph 1018.8mb 48f 40f
3:24 6 10 mph 1018.7mb 48f 40f
3:18 7 10 mph 1018.7mb 48f 40f
3:12 7 9 mph 1018.8mb 48f 40f
3:06 6 8 mph 1018.8mb 48f 40f
3:00 7 9 mph 1018.8mb 48f 40f
2:36 8 10 mph 1018.8mb 48f 40f
2:30 8 10 mph 1018.7mb 48f 40f
2:24 8 10 mph 1018.7mb 48f 40f
2:18 8 10 mph 1018.6mb 48f 40f
2:12 8 10 mph 1018.6mb 48f 40f
2:06 9 11 mph 1018.6mb 48f 40f
2:00  -  mph 1018.6mb 48f -
1:36 7 9 mph 1018.7mb 49f 40f
1:30 9 11 mph 1018.7mb 49f 41f
1:24 8 10 mph 1018.8mb 49f 41f
1:18 8 9 mph 1018.7mb 49f 40f
1:12 8 10 mph 1018.7mb 49f 41f
1:06 8 10 mph 1018.7mb 49f 41f
1:00 8 10 mph 1018.6mb 49f 41f
12:36 8 10 mph 1018.5mb 49f 41f
12:30 7 9 mph 1018.4mb 49f 41f
12:24 8 9 mph 1018.5mb 49f 41f
12:18 7 9 mph 1018.5mb 49f 41f
12:12 7 9 mph 1018.5mb 49f 41f
12:06 8 9 mph 1018.4mb 49f 41f
12:00 8 9 mph 1018.5mb 49f 41f
sam. 04/25 11:36 7 9 mph 1018.6mb 49f 42f
11:30 8 9 mph - - 42f
11:24 7 9 mph - - 42f
11:18 7 9 mph 1018.5mb 48f 42f
11:12 7 8 mph 1018.4mb 48f 42f
11:06 6 8 mph - - 42f
11:00  -  mph 1018.2mb 48f -
10:36 6 8 mph 1018.3mb 48f 43f
10:30 6 8 mph 1018.2mb 48f 43f
10:24 7 9 mph 1018.1mb 48f 43f
10:18 6 8 mph 1018.1mb 48f 43f
10:12 7 8 mph - - 44f
10:06 6
mph
1018mb 48f 44f
10:00 5 6 mph 1018mb 48f 44f
9:36 5 6 mph 1018.1mb 48f 44f
9:30 5 6 mph 1018mb 48f 45f
9:24 5 7 mph 1017.9mb 48f 45f
9:18 6
mph
1017.9mb 48f 45f
9:12 5 6 mph 1017.8mb 48f 45f
9:06 3 5 mph - - 45f
9:00 3 5 mph - - 46f
8:36 2 3 mph 1017.9mb 48f 49f
8:30 3
mph
1017.9mb 48f 50f
8:24 3 5 mph 1017.9mb 48f 50f
8:18 3 5 mph 1017.8mb 48f 50f
8:12 3 5 mph 1017.8mb 48f 50f
8:06 3 5 mph - - 50f
8:00 3 5 mph - - 50f
7:36 5
mph
1017.8mb 48f 51f
7:30  -  mph 1017.7mb 48f -
7:24 5 6 mph 1017.6mb 48f 51f
7:18 5 6 mph 1017.5mb 48f 51f
7:12 5 6 mph 1017.5mb 48f 51f
7:06 6
mph
1017.5mb 48f 51f
7:00 5 6 mph 1017.4mb 48f 51f
6:54 5 6 mph - - 51f
6:48 5 6 mph 1017.4mb 48f 51f
6:36 6
mph
1017.4mb 48f 51f
6:30 6
mph
1017.3mb 48f 51f
6:24 6 7 mph 1017.3mb 48f 51f
6:18 6
mph
1017.2mb 48f 51f
6:12 6 7 mph 1017.2mb 48f 51f
6:06 6 7 mph 1017.2mb 48f 51f
6:00 6 7 mph 1017.1mb 48f 51f
5:54 6 8 mph 1017.1mb 48f 51f
5:48 6 7 mph 1017.1mb 48f 51f
5:36 7 8 mph 1017.1mb 48f 50f
5:30 7
mph
1017mb 48f 50f
5:24 7 8 mph 1017mb 48f 50f
5:18 6 8 mph 1017mb 48f 50f
5:12 7 8 mph 1017mb 48f 50f
5:06 7 9 mph 1016.9mb 48f 50f
5:00 7 9 mph 1016.9mb 48f 50f
4:54 8 9 mph 1016.8mb 48f 50f
4:48 8 9 mph 1016.9mb 48f 50f
4:36 8 10 mph 1016.9mb 48f 50f
4:30 9 10 mph 1016.9mb 48f 50f
4:24 8 10 mph 1017mb 48f 50f
4:18 8 11 mph 1017.1mb 48f 50f
4:12 9 11 mph 1017.1mb 48f 50f
4:06 8 11 mph 1017mb 48f 50f
4:00 10 11 mph 1017mb 48f 50f
3:54 9 11 mph 1017mb 48f 50f
3:48 9 11 mph 1017mb 48f 50f
3:36 10 11 mph 1017mb 48f 50f
3:30 8 11 mph 1017mb 48f 50f
3:24 10 13 mph 1016.9mb 48f 50f
3:18 10 11 mph 1017mb 48f 50f
3:12 9 11 mph 1016.9mb 49f 50f
3:06 9 11 mph 1016.9mb 49f 50f
3:00 9 11 mph 1016.8mb 49f 50f
2:54 9 11 mph 1016.8mb 49f 50f
2:48 9 13 mph 1016.8mb 49f 50f
2:36 7 10 mph 1016.6mb 50f 50f
2:30 9 11 mph 1016.6mb 50f 50f
2:24 8 10 mph 1016.6mb 50f 50f
2:18 7 9 mph 1016.4mb 50f 50f
2:12 8 11 mph 1016.4mb 50f 50f
2:06 8 10 mph 1016.4mb 50f 49f
2:00 9 11 mph 1016.4mb 50f 50f
1:54 8 11 mph 1016.4mb 50f 49f
1:48 8 10 mph 1016.3mb 50f 49f
1:36 8 10 mph 1016.3mb 50f 49f
1:30 8 13 mph 1016.3mb 50f 49f
1:24 8 13 mph 1016.3mb 50f 49f
1:18 8 10 mph 1016.2mb 49f 49f
1:12 7 11 mph 1016.1mb 49f 49f
1:06 8 10 mph 1016.1mb 49f 49f
1:00 8 10 mph 1016.1mb 49f 49f
12:54 8 10 mph 1016.1mb 49f 49f
12:48 8 10 mph 1016.1mb 49f 49f
12:36 9 11 mph 1016mb 49f 49f
12:30 7 10 mph 1016mb 49f 49f
12:24 8 11 mph 1016mb 49f 49f
12:18 9 11 mph 1016mb 49f 48f
12:12 8 11 mph 1015.9mb 49f 49f
12:06 10 11 mph 1015.9mb 48f 48f
12:00 9 11 mph 1015.8mb 48f 49f
11:54 10 11 mph 1015.8mb 48f 48f
11:48 10 13 mph 1015.8mb 48f 48f
11:36 8 10 mph 1015.8mb 48f 48f
11:30 9 11 mph 1015.8mb 48f 48f
11:24 9 11 mph 1015.8mb 48f 47f
11:18 9 11 mph 1015.8mb 48f 47f
11:12 9 11 mph 1015.7mb 48f 47f
11:06 9 11 mph 1015.6mb 48f 47f
11:00 8 11 mph 1015.5mb 48f 47f
10:54 8 10 mph 1015.5mb 48f 47f
10:48 8 10 mph 1015.5mb 48f 47f
10:36 8 9 mph 1015.2mb 48f 47f
10:30 8 10 mph 1015.1mb 48f 47f
10:24 7 9 mph 1015mb 48f 47f
10:18 8 9 mph 1015mb 48f 47f
10:12 7 9 mph 1014.9mb 48f 46f
10:06 6 8 mph 1014.8mb 48f 46f
10:00 6 7 mph 1014.8mb 48f 46f
9:54 5 6 mph 1014.8mb 48f 46f
9:48 3 6 mph 1014.8mb 48f 46f
9:36  -  6 mph - - 47f
9:30 3 6 mph - - 46f
9:24 3 6 mph 1014.8mb 48f 46f
9:18 5 8 mph 1014.9mb 48f 45f
9:12 6 8 mph 1014.8mb 48f 45f
9:06 6 9 mph 1014.8mb 48f 44f
9:00 6 9 mph 1014.8mb 48f 44f
8:54 5 9 mph 1014.7mb 48f 44f
8:48 6 8 mph 1014.6mb 48f 44f
8:36 5 8 mph 1014.6mb 48f 43f
8:30 7 9 mph 1014.6mb 48f 43f
8:24 6 9 mph 1014.5mb 48f 43f
8:18 6 9 mph 1014.5mb 48f 43f
8:12 6 9 mph - - 43f
8:06 5 7 mph 1014.4mb 48f 42f
8:00 3 6 mph 1014.3mb 48f 42f
7:54 3 6 mph 1014.3mb 48f 41f
7:48 6
mph
1014.3mb 47f 40f
7:36 6 7 mph 1014.2mb 47f 40f
7:30 6 9 mph - - 40f
7:24 7 8 mph 1014.2mb 47f 40f
7:18 7 9 mph 1014.1mb 47f 40f
7:12 6 8 mph - - 40f
7:06 7 8 mph 1013.9mb 47f 39f
7:00 7 9 mph 1013.9mb 47f 39f
6:54 7 8 mph 1013.9mb 47f 39f
6:48 7 8 mph 1013.8mb 47f 39f
6:36 7 10 mph 1013.7mb 47f 39f
6:30 7 9 mph 1013.6mb 47f 39f
6:24 8 9 mph 1013.6mb 47f 39f
6:18 7 9 mph 1013.6mb 47f 39f
6:12 7 9 mph - - 39f
6:06 6 8 mph 1013.5mb 47f 39f
6:00 6 8 mph 1013.5mb 47f 39f
5:54 6 7 mph 1013.5mb 47f 39f
5:48 6 9 mph 1013.4mb 47f 39f
5:36 6 10 mph 1013.2mb 47f 39f
5:30 5 9 mph 1013.3mb 47f 39f
5:24 6 9 mph 1013.3mb 47f 39f
5:18 8 10 mph 1013.2mb 47f 38f
5:12 6 7 mph - - 38f
5:06 6 8 mph 1013.1mb 47f 38f
5:00 6 8 mph 1013.2mb 47f 38f
4:54  -  mph 1013.1mb 47f -
4:48 7 9 mph 1013.1mb 47f 38f
4:36 6 8 mph 1013mb 47f 38f
4:30 7 9 mph 1012.9mb 47f 39f
4:24 7 9 mph 1012.9mb 47f 38f
4:18 5 8 mph 1012.9mb 47f 38f
4:12 7 8 mph 1013mb 47f 38f
4:06 7 9 mph 1013mb 47f 39f
4:00 7 8 mph 1013mb 47f 39f
3:54 6 8 mph 1013.1mb 47f 39f
3:48 6 8 mph 1013mb 47f 39f
3:36 7 9 mph 1012.8mb 48f 38f
3:30  -  mph 1012.7mb 48f -
3:24 5 9 mph 1012.7mb 48f 38f
3:18 8 9 mph 1012.7mb 48f 38f
3:12 6 7 mph 1012.7mb 48f 38f
3:06 5 8 mph 1012.7mb 48f 39f
3:00 7 9 mph 1012.7mb 48f 39f
2:54 6 7 mph 1012.7mb 48f 39f
2:48 3 6 mph 1012.6mb 48f 39f
2:36 5 7 mph 1012.6mb 48f 39f
2:30 3 8 mph 1012.6mb 48f 39f
2:24  -  mph 1012.5mb 48f -
2:18 6 8 mph 1012.5mb 48f 39f
2:12 7 9 mph 1012.5mb 48f 39f
2:06 7 9 mph 1012.5mb 48f 39f
2:00 7 9 mph 1012.4mb 48f 39f
1:54 7 8 mph 1012.4mb 48f 39f
1:48 7 8 mph 1012.4mb 48f 40f
1:36 7 9 mph 1012.4mb 48f 40f
1:30 7 9 mph 1012.4mb 48f 40f
1:24 7 9 mph 1012.5mb 48f 40f
1:18 7 8 mph 1012.5mb 48f 40f
1:12 7 9 mph 1012.5mb 48f 40f
1:06 7 9 mph 1012.5mb 48f 40f
1:00 8 9 mph 1012.4mb 49f 40f
12:54 7 9 mph 1012.4mb 49f 40f
12:48 7 8 mph 1012.3mb 49f 40f
12:36 7 8 mph 1012.2mb 48f 40f
12:30 6 8 mph 1012.2mb 49f 40f
12:24 7 9 mph 1012.2mb 49f 40f
12:18 7 9 mph 1012.1mb 49f 40f
12:12 6 9 mph 1012.1mb 49f 40f
12:06 7 8 mph 1012.1mb 49f 40f
12:00 7 8 mph 1012mb 49f 40f
ven. 04/24 11:54 7 9 mph - - 41f
11:48 7 9 mph - - 41f
11:36 7 9 mph - - 41f
11:30 7 8 mph 1012mb 49f 41f
11:24 6 8 mph - - 42f
11:18 7 8 mph 1011.9mb 49f 42f
11:12 6 8 mph 1011.9mb 49f 42f
11:06 6 7 mph - - 42f
11:00 6 8 mph 1012mb 49f 42f
10:54 6
mph
- - 42f
10:48 5 6 mph - - 42f
10:36 5 7 mph 1011.9mb 49f 43f
10:30 5 6 mph 1011.8mb 49f 43f
10:24 3 5 mph 1011.8mb 50f 43f
10:18 2 6 mph 1011.8mb 50f 43f
10:12  -  5 mph 1011.8mb 49f 43f
10:06 5 7 mph 1011.7mb 49f 43f
10:00 6
mph
1011.5mb 49f 43f
9:54 6 7 mph - - 43f
9:48 6
mph
- - 43f
9:36 5 6 mph 1011.5mb 49f 43f
9:30 3 6 mph 1011.6mb 49f 43f
9:24 3 5 mph 1011.5mb 48f 44f
9:18 3
mph
1011.5mb 48f 44f
9:12 2
mph
1011.4mb 48f 44f
9:06 2
mph
- - 45f
9:00  -  2 mph - - 45f
8:54 1 3 mph 1011.3mb 48f 46f
8:48 2 6 mph 1011.2mb 48f 46f
8:36 6 8 mph 1011.2mb 48f 48f
8:30 7 8 mph 1011.1mb 48f 48f
8:24 6
mph
1011.1mb 48f 48f
8:18 6 7 mph 1011.2mb 48f 48f
8:12 6 7 mph 1011.2mb 48f 48f
8:06 6 7 mph 1011.1mb 48f 48f
8:00 6 8 mph 1011mb 48f 48f
7:54 7 8 mph 1011mb 48f 48f
7:48 7 9 mph 1011mb 48f 48f
7:36 8 10 mph 1011mb 48f 48f
7:30 7 10 mph 1011mb 48f 49f
7:24 8 11 mph 1011.1mb 48f 48f
7:18 10 13 mph 1011.1mb 48f 48f
7:12 9 11 mph 1011.1mb 48f 49f
7:06 9 13 mph 1011.1mb 48f 48f
7:00 11 13 mph 1011mb 48f 49f
6:54 10 13 mph 1011mb 48f 49f
6:48 9 11 mph 1010.9mb 48f 49f
6:36 10 13 mph 1010.9mb 48f 49f
6:30 10 13 mph 1010.8mb 48f 49f
6:24 8 11 mph 1010.7mb 48f 49f
6:18 8 11 mph 1010.7mb 48f 49f
6:12 8 11 mph 1010.7mb 48f 49f
6:06 8 10 mph 1010.7mb 48f 49f
6:00 8 10 mph 1010.6mb 48f 49f
5:54 8 10 mph 1010.6mb 48f 49f
5:48 8 10 mph 1010.5mb 48f 48f
5:36 8 10 mph 1010.4mb 48f 49f
5:30 9 11 mph 1010.4mb 48f 48f
5:24 8 11 mph 1010.4mb 48f 49f
5:18 9 11 mph 1010.4mb 48f 48f
5:12 9 11 mph 1010.3mb 48f 49f
5:06 9 11 mph 1010.3mb 48f 49f
5:00 9 11 mph 1010.2mb 48f 49f
4:54 9 11 mph 1010.2mb 48f 49f
4:48 8 11 mph 1010.1mb 47f 49f
4:36 9 11 mph 1010.1mb 47f 49f
4:30 9 11 mph 1010mb 47f 49f
4:24 9 11 mph 1010mb 47f 49f
4:18 10 13 mph 1010mb 47f 49f
4:12 10 13 mph 1009.9mb 47f 49f
4:06 9 13 mph 1009.8mb 47f 49f
4:00 8 14 mph 1009.7mb 47f 49f
3:54 10 14 mph 1009.8mb 47f 49f
3:48 9 14 mph 1009.7mb 47f 49f
3:36 11 15 mph 1009.8mb 47f 49f
3:30 10 15 mph 1009.7mb 47f 49f
3:24 9 13 mph 1009.6mb 47f 49f
3:18 9 11 mph 1009.6mb 47f 49f
3:12 10 13 mph 1009.5mb 47f 49f
3:06 9 13 mph 1009.5mb 47f 49f
3:00 6 11 mph 1009.4mb 47f 49f
2:54 13 17 mph 1009.4mb 48f 49f
2:48 9 13 mph 1009.3mb 48f 49f
2:36 10 13 mph 1009.2mb 48f 49f
2:30 9 10 mph 1009.2mb 48f 49f
2:24 8 13 mph 1009.2mb 48f 49f
2:18 9 14 mph 1009.1mb 48f 49f
2:12 8 14 mph 1009.1mb 48f 49f
2:06 10 14 mph 1009mb 49f 49f
2:00 9 13 mph 1008.9mb 49f 49f
1:54 11 14 mph 1008.9mb 49f 49f
1:48 10 14 mph 1008.8mb 49f 49f
1:36 11 15 mph 1008.5mb 48f 49f
1:30 9 13 mph 1008.5mb 48f 49f
1:24 9 11 mph 1008.5mb 48f 49f
1:18 8 11 mph 1008.5mb 48f 49f
1:12 9 14 mph 1008.5mb 48f 49f
1:06 10 14 mph 1008.5mb 48f 49f
1:00 9 14 mph 1008.5mb 48f 49f
12:54 10 16 mph 1008.6mb 48f 49f
12:48 14 16 mph 1008.6mb 48f 49f
12:36 7 11 mph 1008.5mb 47f 49f
12:30 6 11 mph 1008.5mb 47f 48f
12:24 7 9 mph 1008.6mb 47f 48f
12:18 8 13 mph 1008.6mb 47f 48f
12:12 7 16 mph 1008.6mb 47f 47f
12:06 14 20 mph 1008.6mb 47f 47f
12:00 10 15 mph 1008.4mb 47f 49f
11:54 14 18 mph 1008.3mb 47f 49f
11:48 11 16 mph 1008.3mb 47f 49f
11:36 13 21 mph 1008.3mb 47f 48f
11:30 13 18 mph 1008.2mb 47f 48f
11:24 11 15 mph 1008.2mb 47f 48f
11:18 11 20 mph 1008.1mb 47f 48f
11:12 14 17 mph 1008mb 47f 48f
11:06 10 17 mph 1007.9mb 47f 48f
11:00 8 14 mph 1007.9mb 47f 48f
10:54 8 11 mph 1007.9mb 47f 49f
10:48 7 14 mph 1007.8mb 47f 48f
10:36 9 16 mph 1007.8mb 47f 48f
10:30 9 16 mph 1007.7mb 47f 47f
10:24 13 17 mph 1007.6mb 47f 48f
10:18 8 14 mph 1007.6mb 47f 48f
10:12 9 14 mph 1007.5mb 47f 47f
10:06 8 17 mph 1007.4mb 47f 47f
10:00 14 20 mph 1007.4mb 47f 47f
9:54 7 11 mph 1007.3mb 47f 48f
9:48 8 13 mph 1007.3mb 47f 48f
9:36 5 8 mph 1007.2mb 47f 48f
9:30 6 9 mph 1007.2mb 47f 47f
9:24 5 8 mph 1007.1mb 47f 47f
9:18 6 8 mph 1007.1mb 47f 47f
9:12 5 8 mph 1007mb 47f 47f
9:06 6 7 mph 1007mb 47f 47f
9:00 6 7 mph 1006.8mb 47f 47f
8:54 6 7 mph 1006.8mb 47f 47f
8:48 3 7 mph 1006.8mb 47f 47f
8:36 5 10 mph 1006.8mb 47f 46f
8:30 10 15 mph 1006.9mb 47f 46f
8:24 6 9 mph 1006.8mb 47f 47f
8:18 6 8 mph 1006.7mb 47f 47f
8:12 7 14 mph 1006.7mb 47f 46f
8:06 7 11 mph 1006.6mb 47f 46f
8:00 10 16 mph 1006.5mb 47f 46f
7:54 15 17 mph 1006.6mb 47f 45f
7:48 2 6 mph 1006.5mb 47f 45f
7:36 3 6 mph 1006.4mb 47f 44f
7:30 3
mph
1006.4mb 47f 44f
7:24 2 6 mph 1006.4mb 47f 44f
7:18 5 6 mph 1006.3mb 48f 45f
7:12 3 16 mph 1006.2mb 48f 44f
7:06 13 20 mph 1006.2mb 48f 44f
7:00  -  3 mph 1006mb 47f 43f
6:54 2 5 mph 1005.9mb 47f 43f
6:48 3 6 mph 1005.9mb 47f 42f
6:36 5
mph
1006mb 47f 43f
6:30 5 6 mph 1006mb 47f 43f
6:24 5 7 mph 1006mb 47f 43f
6:18 5 6 mph 1005.9mb 47f 42f
6:12 5 6 mph 1005.9mb 47f 42f
6:06 2 7 mph 1005.8mb 47f 42f
6:00 5 7 mph 1005.7mb 47f 42f
5:54 3 7 mph 1005.6mb 47f 42f
5:48 6 7 mph 1005.5mb 47f 42f
5:36 6 11 mph 1005.7mb 47f 43f
5:30 5 10 mph 1005.8mb 47f 42f
5:24 6 8 mph 1005.8mb 47f 42f
5:18 6 7 mph 1005.8mb 47f 42f
5:12 6 8 mph 1005.8mb 47f 42f
5:06 7 10 mph 1005.9mb 47f 41f
5:00 3 6 mph 1005.9mb 47f 42f
4:54 3 7 mph 1005.8mb 47f 42f
4:48 6 9 mph 1005.7mb 47f 42f
4:36  -  mph 1005.8mb 47f -
4:30 9 15 mph 1005.7mb 47f 44f
4:24 3 8 mph 1005.6mb 47f 43f
4:18 6 10 mph 1005.4mb 47f 43f
4:12 6 9 mph 1005.4mb 47f 43f
4:06 5 8 mph 1005.4mb 47f 43f
4:00 3 6 mph 1005.5mb 47f 43f
3:54 3 7 mph 1005.6mb 47f 43f
3:48 3 6 mph 1005.7mb 47f 43f
3:36 3 7 mph 1005.7mb 47f 43f
3:30 5 7 mph 1005.8mb 47f 43f
3:24 3 7 mph 1005.7mb 47f 43f
3:18 2 6 mph 1005.8mb 47f 44f
3:12 1 6 mph 1005.8mb 47f 44f
3:06 2 6 mph 1005.8mb 47f 44f
3:00 2 6 mph 1005.9mb 47f 44f
2:54 6 9 mph 1005.8mb 47f 44f
2:48 6 14 mph 1005.8mb 47f 45f
2:36 8 11 mph 1005.9mb 47f 46f
2:30 5 10 mph 1005.9mb 47f 45f
2:24 6 8 mph 1005.9mb 47f 46f
2:18 2 3 mph 1005.9mb 47f 44f
2:12 2 9 mph 1006mb 47f 45f
2:06 8 11 mph 1006mb 47f 45f
2:00 10 15 mph 1005.9mb 47f 45f
1:54 11 15 mph 1006mb 47f 46f
1:48 13 16 mph 1006mb 47f 46f
1:36 8 13 mph 1006mb 47f 46f
1:30 11 15 mph 1006mb 47f 45f
1:24 10 14 mph 1006mb 47f 45f
1:18 9 13 mph 1006mb 47f 45f
1:12 5 9 mph 1006.1mb 47f 44f
1:06 5 7 mph 1006.2mb 47f 44f
1:00 3 6 mph 1006.3mb 47f 43f
12:54 5 6 mph 1006.2mb 47f 43f
12:48 1 5 mph 1006.3mb 47f 43f
12:36 5 8 mph 1006.5mb 47f 42f
12:30 6
mph
1006.6mb 47f 43f
12:24 6
mph
1006.6mb 47f 42f
12:18 2 3 mph 1006.6mb 47f 43f
12:12 2 3 mph 1006.6mb 47f 43f
12:06  -  mph 1006.6mb 47f -
12:00  -  mph 1006.6mb 47f -
jeu. 04/23 11:30 3 7 mph 1006.5mb 48f 42f
11:24 6 8 mph - - 42f
11:18 6 8 mph 1006.6mb 48f 42f
11:12 6 7 mph - - 42f
11:06 5 6 mph - - 42f
11:00 6 7 mph 1007mb 48f 42f
10:54 5 6 mph - - 42f
10:48 5 6 mph 1007mb 49f 43f
10:36 3 6 mph 1006.9mb 49f 43f
10:30 3 7 mph 1006.9mb 49f 43f
10:24 2 6 mph 1007mb 49f 43f
10:18 5 8 mph 1007.2mb 48f 43f
10:12 7 15 mph 1007.5mb 48f 43f
10:06 16 23 mph 1007.7mb 48f 44f
10:00 18 24 mph - - 44f
9:54 15 23 mph 1007.6mb 48f 45f
9:48 15 20 mph 1007.4mb 47f 45f
9:36 7 14 mph 1007.2mb 47f 45f
9:30 8 10 mph 1007.2mb 47f 45f
9:24 5 7 mph 1007.2mb 47f 45f
9:18 6 16 mph 1007.2mb 47f 46f
9:12 14 18 mph 1007.2mb 47f 46f
9:06 5 8 mph 1007.2mb 47f 45f
9:00 5 9 mph - - 44f
8:54 6 8 mph 1007.2mb 47f 44f
8:48 5 7 mph 1007.4mb 47f 44f
8:36 2 7 mph 1007.4mb 46f 44f
8:30 5 7 mph - - 43f
8:24 3 6 mph 1007.4mb 46f 43f
8:18 3 6 mph 1007.5mb 46f 43f
8:12 5 6 mph 1007.5mb 46f 43f
8:06 5 6 mph 1007.5mb 46f 43f
8:00 5 7 mph 1007.5mb 47f 43f
7:54 5 6 mph 1007.5mb 47f 43f
7:48 3 6 mph 1007.5mb 47f 43f
7:36 3 7 mph 1007.7mb 47f 44f
7:30 6 7 mph 1007.7mb 47f 44f
7:24 3 13 mph 1007.8mb 47f 44f
7:18 11 22 mph 1008.2mb 47f 44f
7:12 5 17 mph - - 45f
7:06 2 5 mph 1007.7mb 47f 46f
7:00 2 3 mph 1007.8mb 47f 46f
6:54 3
mph
1007.8mb 47f 46f
6:48 2 3 mph 1007.9mb 47f 46f
6:36 2 3 mph 1008mb 47f 46f
6:30 2 6 mph 1008.1mb 47f 46f
6:24 3 5 mph 1008.2mb 47f 46f
6:18 1 3 mph 1008.4mb 47f 46f
6:12 3 15 mph 1008.4mb 47f 45f
6:06 13 22 mph 1008.9mb 47f 44f
6:00 16 20 mph 1008.9mb 47f 46f
5:54 5 7 mph 1008.3mb 47f 48f
5:48 5 6 mph 1008.3mb 47f 48f
5:36 5 7 mph 1008.2mb 47f 48f
5:30 3 5 mph 1008.3mb 47f 48f
5:24 2 6 mph 1008.3mb 47f 48f
5:18 3
mph
1008.3mb 47f 48f
5:12 3 5 mph 1008.3mb 47f 48f
5:06 3 5 mph 1008.3mb 47f 48f
5:00 5 6 mph 1008.3mb 47f 48f
4:54 5 7 mph 1008.3mb 47f 47f
4:48 6 8 mph 1008.3mb 47f 48f
4:36 7 10 mph 1008.4mb 47f 48f
4:30 9 11 mph 1008.5mb 47f 47f
4:24 10 15 mph 1008.6mb 47f 48f
4:18 11 14 mph 1008.7mb 47f 47f
4:12 13 18 mph 1008.7mb 47f 47f
4:06 14 18 mph 1008.9mb 47f 47f
4:00 16 20 mph 1008.8mb 47f 47f
3:54 15 17 mph 1008.7mb 47f 49f
3:48 9 10 mph 1008.6mb 47f 49f
3:36 10 13 mph 1008.7mb 47f 49f
3:30 8 10 mph 1008.7mb 47f 49f
3:24 9 13 mph 1008.7mb 47f 49f
3:18 10 14 mph 1008.7mb 47f 49f
3:12 9 13 mph 1008.8mb 47f 49f
3:06 9 13 mph 1008.8mb 47f 49f
3:00 9 20 mph 1008.9mb 47f 48f
2:54 9 13 mph 1008.8mb 46f 49f
2:48 8 11 mph 1008.8mb 46f 49f
2:36 10 13 mph 1008.9mb 46f 49f
2:30 9 13 mph 1008.9mb 46f 49f
2:24 11 14 mph 1008.9mb 46f 49f
2:18 9 11 mph 1008.8mb 46f 49f
2:12 9 13 mph 1008.8mb 47f 49f
2:06 11 14 mph 1008.7mb 47f 49f
2:00 13 16 mph 1008.7mb 47f 49f
1:54 10 15 mph 1008.8mb 47f 49f
1:48 9 11 mph 1008.8mb 47f 49f
1:36 10 14 mph 1008.8mb 47f 49f
1:30 11 14 mph 1008.8mb 47f 49f
1:24 8 11 mph 1008.7mb 47f 48f
1:18 7 17 mph 1008.7mb 47f 47f
1:12  -  mph 1008.6mb 48f -
1:06 11 16 mph 1008.6mb 48f 48f
1:00 9 16 mph 1008.6mb 48f 48f
12:54 10 15 mph 1008.6mb 48f 48f
12:48 9 15 mph 1008.5mb 48f 48f
12:36 11 16 mph 1008.6mb 48f 47f
12:30 10 17 mph 1008.6mb 48f 47f
12:24 8 14 mph 1008.6mb 48f 47f
12:18 10 15 mph 1008.6mb 48f 47f
12:12 7 11 mph 1008.7mb 48f 46f
12:06 9 13 mph 1008.8mb 48f 46f
12:00 3 10 mph 1008.8mb 48f 46f
11:54 6 11 mph 1008.7mb 48f 46f
11:48 8 10 mph 1008.7mb 48f 46f
11:36 11 17 mph 1008.7mb 48f 46f
11:30 21 28 mph 1008.7mb 48f 46f
11:24 16 31 mph 1008.7mb 48f 46f
11:18 18 33 mph 1008.5mb 48f 46f
11:12 15 28 mph 1008.3mb 48f 46f
11:06 16 32 mph 1008.3mb 48f 46f
11:00 8 24 mph 1008.5mb 48f 46f
10:54 6 13 mph 1008.6mb 48f 46f
10:48 5 16 mph 1008.9mb 48f 45f
10:36 9 20 mph 1009mb 48f 45f
10:30 8 18 mph 1009mb 48f 46f
10:24 15 22 mph 1008.9mb 48f 45f
10:18 10 20 mph 1009.1mb 48f 45f
10:12 11 21 mph 1009.1mb 48f 45f
10:06 13 20 mph 1009.2mb 48f 45f
10:00 9 15 mph 1009.2mb 48f 45f
9:54 14 21 mph 1009.3mb 49f 45f
9:48 7 22 mph 1009.3mb 49f 45f
9:36 11 24 mph 1009.5mb 49f 45f
9:30 11 20 mph 1009.6mb 49f 45f
9:24 9 21 mph 1009.6mb 49f 45f
9:18 11 23 mph 1009.7mb 49f 45f
9:12 15 22 mph 1009.7mb 49f 45f
9:06 10 28 mph 1009.7mb 49f 45f
9:00 11 20 mph 1009.8mb 50f 45f
8:54 9 22 mph 1009.8mb 50f 45f
8:48 10 21 mph 1009.9mb 50f 45f
8:36 10 18 mph 1010mb 50f 45f
8:30 10 15 mph 1010.1mb 50f 45f
8:24 11 20 mph 1010.2mb 50f 45f
8:18 13 22 mph 1010.3mb 50f 45f
8:12 11 18 mph 1010.4mb 49f 45f
8:06 8 23 mph 1010.5mb 49f 45f
8:00 10 20 mph 1010.5mb 49f 45f
7:54 8 16 mph 1010.6mb 49f 45f
7:48 10 16 mph 1010.7mb 48f 45f
7:36 9 15 mph 1010.9mb 48f 44f
7:30 6 16 mph 1011mb 48f 44f
7:24 8 17 mph 1011.1mb 48f 45f
7:18 7 16 mph 1011.2mb 48f 45f
7:12 8 15 mph 1011.2mb 48f 45f
7:06 9 14 mph 1011.3mb 48f 45f
7:00 8 14 mph 1011.4mb 48f 45f
6:54 7 15 mph 1011.5mb 48f 45f
6:48 7 14 mph 1011.6mb 48f 45f
6:36 8 13 mph 1011.8mb 48f 45f
6:30 8 14 mph 1011.9mb 48f 45f
6:24 7 14 mph 1012mb 48f 45f
6:18 9 15 mph 1012.1mb 48f 45f
6:12 8 13 mph 1012.2mb 48f 45f
6:06 6 13 mph 1012.2mb 48f 45f
6:00 8 15 mph 1012.3mb 48f 45f
5:54 8 14 mph 1012.4mb 48f 45f
5:48 7 16 mph 1012.6mb 48f 45f
5:36 6 15 mph 1012.8mb 48f 45f
5:30 6 11 mph 1013mb 48f 45f
5:24 7 13 mph 1013mb 48f 45f
5:18 6 10 mph 1013.1mb 48f 45f
5:12 7 13 mph 1013.2mb 48f 45f
5:06 6 11 mph 1013.3mb 48f 46f
5:00 9 15 mph 1013.4mb 48f 45f
4:54 5 11 mph 1013.5mb 47f 45f
4:48 7 11 mph 1013.6mb 47f 45f
4:36 7 11 mph 1013.8mb 48f 45f
4:30 5 14 mph 1013.9mb 48f 44f
4:24 7 11 mph 1014mb 47f 44f
4:18 6 13 mph 1014.1mb 47f 44f
4:12 5 8 mph 1014.1mb 47f 44f
4:06 5 8 mph 1014.2mb 47f 43f
4:00 6 10 mph 1014.3mb 48f 43f
3:54 5 10 mph 1014.3mb 48f 43f
3:48 6 8 mph 1014.4mb 48f 43f
3:36 6 7 mph 1014.6mb 48f 42f
3:30 6 7 mph 1014.7mb 48f 42f
3:24 6
mph
1014.8mb 48f 42f
3:18 5 7 mph 1014.9mb 48f 42f
3:12 6 7 mph 1014.9mb 48f 42f
3:06 5 7 mph 1015mb 48f 42f
3:00 6
mph
1015.1mb 48f 42f
2:54 5 6 mph 1015.2mb 48f 42f
2:48 5 7 mph 1015.3mb 48f 42f
2:36 6 7 mph 1015.5mb 48f 42f
2:30 6 7 mph 1015.6mb 48f 42f
2:24 5 7 mph 1015.6mb 48f 42f
2:18 6 7 mph 1015.6mb 48f 42f